Terminal Aerodrome Forecast
Issued by NWS

Home | Current Version | Previous Version | Text Only | Print | Product List | Glossary On
Versions: 1 2 3 4 5 6 7 8 9 10 11 12 13 14 15 16 17 18 19
000
FTUS43 KMPX 262328
TAFRNH
TAF
KRNH 262328Z 2700/2724 36008KT 6SM -RA BR BKN008 OVC015
     FM270600 32006KT 4SM BR VCSH SCT008 BKN080
     FM270900 25006KT 3SM BR SCT015 BKN110
     FM271300 26008KT P6SM SCT060=

USA.gov is the U.S. government's official web portal to all federal, state and local government web resources and services.